sensor_id;sensor_type;location;lat;lon;timestamp;pressure;altitude;pressure_sealevel;temperature;humidity
75172;BME280;63750;52.418;20.742;2023-04-15T00:00:00;99921.09;;;13.40;57.00
75172;BME280;63750;52.418;20.742;2023-04-15T00:02:29;99923.27;;;13.36;57.00
75172;BME280;63750;52.418;20.742;2023-04-15T00:04:57;99922.17;;;13.30;57.03
75172;BME280;63750;52.418;20.742;2023-04-15T00:07:26;99920.59;;;13.28;57.04
75172;BME280;63750;52.418;20.742;2023-04-15T00:09:54;99922.76;;;13.28;57.05
75172;BME280;63750;52.418;20.742;2023-04-15T00:12:23;99922.02;;;13.23;57.17
75172;BME280;63750;52.418;20.742;2023-04-15T00:14:51;99922.07;;;13.21;57.18
75172;BME280;63750;52.418;20.742;2023-04-15T00:17:19;99926.98;;;13.20;57.26
75172;BME280;63750;52.418;20.742;2023-04-15T00:19:48;99925.31;;;13.21;57.27
75172;BME280;63750;52.418;20.742;2023-04-15T00:22:16;99924.41;;;13.22;57.35
75172;BME280;63750;52.418;20.742;2023-04-15T00:24:44;99923.69;;;13.24;57.21
75172;BME280;63750;52.418;20.742;2023-04-15T00:27:13;99924.28;;;13.25;57.40
75172;BME280;63750;52.418;20.742;2023-04-15T00:29:41;99920.38;;;13.24;57.27
75172;BME280;63750;52.418;20.742;2023-04-15T00:32:10;99922.08;;;13.23;57.39
75172;BME280;63750;52.418;20.742;2023-04-15T00:34:38;99921.98;;;13.19;57.55
75172;BME280;63750;52.418;20.742;2023-04-15T00:37:07;99915.98;;;13.20;57.68
75172;BME280;63750;52.418;20.742;2023-04-15T00:39:36;99919.25;;;13.23;57.89
75172;BME280;63750;52.418;20.742;2023-04-15T00:42:05;99917.03;;;13.32;57.60
75172;BME280;63750;52.418;20.742;2023-04-15T00:44:33;99916.70;;;13.33;57.26
75172;BME280;63750;52.418;20.742;2023-04-15T00:47:01;99915.59;;;13.30;57.30
75172;BME280;63750;52.418;20.742;2023-04-15T00:49:31;99916.02;;;13.28;57.33
75172;BME280;63750;52.418;20.742;2023-04-15T00:52:00;99911.63;;;13.22;57.45
75172;BME280;63750;52.418;20.742;2023-04-15T00:54:28;99913.21;;;13.19;57.63
75172;BME280;63750;52.418;20.742;2023-04-15T00:56:57;99909.52;;;13.18;57.73
75172;BME280;63750;52.418;20.742;2023-04-15T00:59:25;99912.85;;;13.18;57.92
75172;BME280;63750;52.418;20.742;2023-04-15T01:01:54;99914.82;;;13.14;58.04
75172;BME280;63750;52.418;20.742;2023-04-15T01:04:23;99914.04;;;13.15;58.12
75172;BME280;63750;52.418;20.742;2023-04-15T01:06:52;99915.01;;;13.12;58.28
75172;BME280;63750;52.418;20.742;2023-04-15T01:09:20;99915.89;;;13.07;58.33
75172;BME280;63750;52.418;20.742;2023-04-15T01:11:49;99913.05;;;13.00;58.86
75172;BME280;63750;52.418;20.742;2023-04-15T01:14:17;99911.96;;;13.01;58.94
75172;BME280;63750;52.418;20.742;2023-04-15T01:16:47;99910.81;;;13.00;59.19
75172;BME280;63750;52.418;20.742;2023-04-15T01:19:16;99908.30;;;12.97;59.47
75172;BME280;63750;52.418;20.742;2023-04-15T01:21:45;99906.66;;;12.95;59.55
75172;BME280;63750;52.418;20.742;2023-04-15T01:24:16;99906.33;;;12.95;59.81
75172;BME280;63750;52.418;20.742;2023-04-15T01:26:45;99908.45;;;12.94;59.78
75172;BME280;63750;52.418;20.742;2023-04-15T01:29:14;99912.49;;;12.94;59.83
75172;BME280;63750;52.418;20.742;2023-04-15T01:31:49;99913.31;;;12.93;60.09
75172;BME280;63750;52.418;20.742;2023-04-15T01:34:18;99916.33;;;12.90;60.16
75172;BME280;63750;52.418;20.742;2023-04-15T01:36:47;99909.09;;;12.87;60.38
75172;BME280;63750;52.418;20.742;2023-04-15T01:39:15;99906.59;;;12.86;60.50
75172;BME280;63750;52.418;20.742;2023-04-15T01:41:44;99903.71;;;12.85;60.75
75172;BME280;63750;52.418;20.742;2023-04-15T01:44:12;99909.55;;;12.85;60.85
75172;BME280;63750;52.418;20.742;2023-04-15T01:46:40;99906.05;;;12.85;60.89
75172;BME280;63750;52.418;20.742;2023-04-15T01:49:09;99910.50;;;12.81;60.93
75172;BME280;63750;52.418;20.742;2023-04-15T01:51:37;99908.09;;;12.80;61.01
75172;BME280;63750;52.418;20.742;2023-04-15T01:54:06;99907.84;;;12.83;61.00
75172;BME280;63750;52.418;20.742;2023-04-15T01:56:34;99908.23;;;12.83;61.17
75172;BME280;63750;52.418;20.742;2023-04-15T01:59:03;99903.77;;;12.83;61.25
75172;BME280;63750;52.418;20.742;2023-04-15T02:01:31;99905.41;;;12.84;61.30
75172;BME280;63750;52.418;20.742;2023-04-15T02:03:59;99902.89;;;12.86;61.32
75172;BME280;63750;52.418;20.742;2023-04-15T02:06:28;99911.77;;;12.90;61.41
75172;BME280;63750;52.418;20.742;2023-04-15T02:08:56;99907.96;;;12.92;61.45
75172;BME280;63750;52.418;20.742;2023-04-15T02:11:25;99905.83;;;12.93;61.52
75172;BME280;63750;52.418;20.742;2023-04-15T02:13:53;99907.79;;;12.93;61.71
75172;BME280;63750;52.418;20.742;2023-04-15T02:16:22;99905.59;;;12.94;61.99
75172;BME280;63750;52.418;20.742;2023-04-15T02:18:50;99909.08;;;12.93;61.94
75172;BME280;63750;52.418;20.742;2023-04-15T02:21:19;99904.91;;;12.93;61.94
75172;BME280;63750;52.418;20.742;2023-04-15T02:23:47;99904.45;;;12.93;62.23
75172;BME280;63750;52.418;20.742;2023-04-15T02:26:15;99902.39;;;12.88;62.59
75172;BME280;63750;52.418;20.742;2023-04-15T02:28:45;99905.05;;;12.86;62.58
75172;BME280;63750;52.418;20.742;2023-04-15T02:31:13;99907.23;;;12.87;62.80
75172;BME280;63750;52.418;20.742;2023-04-15T02:33:42;99903.39;;;12.91;63.05
75172;BME280;63750;52.418;20.742;2023-04-15T02:36:10;99902.73;;;12.91;63.05
75172;BME280;63750;52.418;20.742;2023-04-15T02:38:39;99906.48;;;12.92;63.09
75172;BME280;63750;52.418;20.742;2023-04-15T02:41:07;99902.96;;;12.89;63.17
75172;BME280;63750;52.418;20.742;2023-04-15T02:43:37;99905.73;;;12.86;63.48
75172;BME280;63750;52.418;20.742;2023-04-15T02:46:05;99904.10;;;12.83;63.60
75172;BME280;63750;52.418;20.742;2023-04-15T02:48:34;99903.42;;;12.79;63.71
75172;BME280;63750;52.418;20.742;2023-04-15T02:51:16;99901.39;;;12.77;63.86
75172;BME280;63750;52.418;20.742;2023-04-15T02:53:44;99907.85;;;12.73;63.94
75172;BME280;63750;52.418;20.742;2023-04-15T02:56:13;99908.70;;;12.71;64.07
75172;BME280;63750;52.418;20.742;2023-04-15T02:58:43;99905.85;;;12.72;64.23
75172;BME280;63750;52.418;20.742;2023-04-15T03:01:11;99905.65;;;12.72;64.40
75172;BME280;63750;52.418;20.742;2023-04-15T03:03:40;99907.51;;;12.71;64.29
75172;BME280;63750;52.418;20.742;2023-04-15T03:06:08;99905.77;;;12.67;64.55
75172;BME280;63750;52.418;20.742;2023-04-15T03:08:36;99901.66;;;12.67;65.06
75172;BME280;63750;52.418;20.742;2023-04-15T03:11:05;99900.52;;;12.73;65.14
75172;BME280;63750;52.418;20.742;2023-04-15T03:13:34;99902.15;;;12.78;65.11
75172;BME280;63750;52.418;20.742;2023-04-15T03:16:02;99905.59;;;12.79;64.87
75172;BME280;63750;52.418;20.742;2023-04-15T03:18:30;99908.31;;;12.78;64.80
75172;BME280;63750;52.418;20.742;2023-04-15T03:20:59;99908.56;;;12.76;64.82
75172;BME280;63750;52.418;20.742;2023-04-15T03:23:29;99906.56;;;12.75;64.93
75172;BME280;63750;52.418;20.742;2023-04-15T03:25:59;99909.58;;;12.72;65.17
75172;BME280;63750;52.418;20.742;2023-04-15T03:28:28;99910.96;;;12.69;65.12
75172;BME280;63750;52.418;20.742;2023-04-15T03:30:57;99914.34;;;12.67;65.17
75172;BME280;63750;52.418;20.742;2023-04-15T03:33:25;99912.81;;;12.66;65.39
75172;BME280;63750;52.418;20.742;2023-04-15T03:35:54;99915.77;;;12.69;65.42
75172;BME280;63750;52.418;20.742;2023-04-15T03:38:22;99914.30;;;12.69;65.39
75172;BME280;63750;52.418;20.742;2023-04-15T03:40:51;99913.36;;;12.69;65.53
75172;BME280;63750;52.418;20.742;2023-04-15T03:43:19;99914.10;;;12.69;65.47
75172;BME280;63750;52.418;20.742;2023-04-15T03:45:47;99916.73;;;12.70;65.59
75172;BME280;63750;52.418;20.742;2023-04-15T03:48:16;99914.83;;;12.67;65.66
75172;BME280;63750;52.418;20.742;2023-04-15T03:50:44;99917.04;;;12.65;65.62
75172;BME280;63750;52.418;20.742;2023-04-15T03:53:12;99915.17;;;12.66;65.67
75172;BME280;63750;52.418;20.742;2023-04-15T03:55:41;99915.40;;;12.64;65.61
75172;BME280;63750;52.418;20.742;2023-04-15T03:58:10;99917.46;;;12.62;65.62
75172;BME280;63750;52.418;20.742;2023-04-15T04:00:39;99914.06;;;12.63;65.55
75172;BME280;63750;52.418;20.742;2023-04-15T04:03:07;99914.36;;;12.63;65.69
75172;BME280;63750;52.418;20.742;2023-04-15T04:05:36;99918.16;;;12.63;65.74
75172;BME280;63750;52.418;20.742;2023-04-15T04:08:05;99919.67;;;12.65;65.78
75172;BME280;63750;52.418;20.742;2023-04-15T04:10:34;99919.48;;;12.67;65.77
75172;BME280;63750;52.418;20.742;2023-04-15T04:13:02;99918.65;;;12.66;65.68
75172;BME280;63750;52.418;20.742;2023-04-15T04:15:30;99919.68;;;12.67;65.75
75172;BME280;63750;52.418;20.742;2023-04-15T04:17:59;99918.55;;;12.67;65.70
75172;BME280;63750;52.418;20.742;2023-04-15T04:20:27;99916.13;;;12.67;65.69
75172;BME280;63750;52.418;20.742;2023-04-15T04:22:55;99918.17;;;12.66;65.64
75172;BME280;63750;52.418;20.742;2023-04-15T04:25:24;99917.02;;;12.67;65.86
75172;BME280;63750;52.418;20.742;2023-04-15T04:27:53;99914.66;;;12.69;65.81
75172;BME280;63750;52.418;20.742;2023-04-15T04:30:21;99916.80;;;12.69;65.80
75172;BME280;63750;52.418;20.742;2023-04-15T04:32:49;99917.86;;;12.67;65.79
75172;BME280;63750;52.418;20.742;2023-04-15T04:35:18;99915.34;;;12.64;65.76
75172;BME280;63750;52.418;20.742;2023-04-15T04:37:47;99916.70;;;12.63;65.91
75172;BME280;63750;52.418;20.742;2023-04-15T04:40:15;99917.10;;;12.64;66.00
75172;BME280;63750;52.418;20.742;2023-04-15T04:42:44;99918.22;;;12.67;66.11
75172;BME280;63750;52.418;20.742;2023-04-15T04:45:12;99918.89;;;12.69;66.04
75172;BME280;63750;52.418;20.742;2023-04-15T04:47:41;99921.02;;;12.69;66.09
75172;BME280;63750;52.418;20.742;2023-04-15T04:50:10;99917.55;;;12.67;66.18
75172;BME280;63750;52.418;20.742;2023-04-15T04:52:39;99922.16;;;12.69;66.19
75172;BME280;63750;52.418;20.742;2023-04-15T04:55:08;99919.63;;;12.69;66.14
75172;BME280;63750;52.418;20.742;2023-04-15T04:57:37;99922.08;;;12.66;66.21
75172;BME280;63750;52.418;20.742;2023-04-15T05:00:07;99924.80;;;12.65;66.13
75172;BME280;63750;52.418;20.742;2023-04-15T05:02:35;99923.23;;;12.62;66.46
75172;BME280;63750;52.418;20.742;2023-04-15T05:05:05;99919.83;;;12.64;66.29
75172;BME280;63750;52.418;20.742;2023-04-15T05:07:33;99920.98;;;12.66;66.42
75172;BME280;63750;52.418;20.742;2023-04-15T05:10:02;99923.70;;;12.69;66.43
75172;BME280;63750;52.418;20.742;2023-04-15T05:12:30;99929.77;;;12.69;66.31
75172;BME280;63750;52.418;20.742;2023-04-15T05:14:59;99928.73;;;12.64;66.48
75172;BME280;63750;52.418;20.742;2023-04-15T05:17:27;99928.90;;;12.62;66.54
75172;BME280;63750;52.418;20.742;2023-04-15T05:19:56;99929.89;;;12.58;66.71
75172;BME280;63750;52.418;20.742;2023-04-15T05:22:24;99930.20;;;12.55;66.96
75172;BME280;63750;52.418;20.742;2023-04-15T05:24:53;99928.75;;;12.57;66.98
75172;BME280;63750;52.418;20.742;2023-04-15T05:27:21;99926.50;;;12.60;66.90
75172;BME280;63750;52.418;20.742;2023-04-15T05:29:49;99928.50;;;12.64;66.96
75172;BME280;63750;52.418;20.742;2023-04-15T05:32:18;99924.71;;;12.66;67.07
75172;BME280;63750;52.418;20.742;2023-04-15T05:34:46;99925.16;;;12.69;67.09
75172;BME280;63750;52.418;20.742;2023-04-15T05:37:14;99928.56;;;12.70;67.09
75172;BME280;63750;52.418;20.742;2023-04-15T05:39:43;99927.45;;;12.71;67.05
75172;BME280;63750;52.418;20.742;2023-04-15T05:42:11;99929.56;;;12.69;67.09
75172;BME280;63750;52.418;20.742;2023-04-15T05:44:39;99930.77;;;12.70;67.10
75172;BME280;63750;52.418;20.742;2023-04-15T05:47:08;99928.97;;;12.71;67.08
75172;BME280;63750;52.418;20.742;2023-04-15T05:49:36;99927.02;;;12.73;67.06
75172;BME280;63750;52.418;20.742;2023-04-15T05:52:05;99931.49;;;12.75;67.23
75172;BME280;63750;52.418;20.742;2023-04-15T05:54:33;99931.15;;;12.73;67.16
75172;BME280;63750;52.418;20.742;2023-04-15T05:57:02;99931.85;;;12.68;67.55
75172;BME280;63750;52.418;20.742;2023-04-15T05:59:30;99932.01;;;12.66;67.34
75172;BME280;63750;52.418;20.742;2023-04-15T06:01:59;99937.56;;;12.64;67.44
75172;BME280;63750;52.418;20.742;2023-04-15T06:04:27;99936.73;;;12.59;67.42
75172;BME280;63750;52.418;20.742;2023-04-15T06:06:56;99937.59;;;12.57;67.75
75172;BME280;63750;52.418;20.742;2023-04-15T06:09:24;99936.17;;;12.55;67.80
75172;BME280;63750;52.418;20.742;2023-04-15T06:11:53;99945.55;;;12.58;67.83
75172;BME280;63750;52.418;20.742;2023-04-15T06:14:21;99941.63;;;12.49;67.82
75172;BME280;63750;52.418;20.742;2023-04-15T06:16:50;99944.83;;;12.48;68.02
75172;BME280;63750;52.418;20.742;2023-04-15T06:19:18;99941.89;;;12.48;68.18
75172;BME280;63750;52.418;20.742;2023-04-15T06:21:47;99943.10;;;12.49;68.15
75172;BME280;63750;52.418;20.742;2023-04-15T06:24:15;99943.33;;;12.52;68.24
75172;BME280;63750;52.418;20.742;2023-04-15T06:26:44;99947.09;;;12.53;68.17
75172;BME280;63750;52.418;20.742;2023-04-15T06:29:12;99946.27;;;12.54;68.34
75172;BME280;63750;52.418;20.742;2023-04-15T06:31:40;99944.20;;;12.55;68.39
75172;BME280;63750;52.418;20.742;2023-04-15T06:34:09;99948.20;;;12.55;68.36
75172;BME280;63750;52.418;20.742;2023-04-15T06:36:37;99949.52;;;12.53;68.59
75172;BME280;63750;52.418;20.742;2023-04-15T06:39:06;99951.40;;;12.51;68.67
75172;BME280;63750;52.418;20.742;2023-04-15T06:41:34;99953.88;;;12.51;68.52
75172;BME280;63750;52.418;20.742;2023-04-15T06:44:03;99955.65;;;12.48;68.40
75172;BME280;63750;52.418;20.742;2023-04-15T06:46:32;99959.00;;;12.45;68.58
75172;BME280;63750;52.418;20.742;2023-04-15T06:49:00;99961.81;;;12.43;68.60
75172;BME280;63750;52.418;20.742;2023-04-15T06:51:28;99964.54;;;12.43;68.62
75172;BME280;63750;52.418;20.742;2023-04-15T06:53:57;99966.15;;;12.44;68.67
75172;BME280;63750;52.418;20.742;2023-04-15T06:56:26;99969.64;;;12.47;68.83
75172;BME280;63750;52.418;20.742;2023-04-15T06:58:54;99968.91;;;12.47;68.99
75172;BME280;63750;52.418;20.742;2023-04-15T07:01:23;99969.36;;;12.51;68.99
75172;BME280;63750;52.418;20.742;2023-04-15T07:03:51;99972.95;;;12.54;69.07
75172;BME280;63750;52.418;20.742;2023-04-15T07:06:20;99976.77;;;12.51;69.21
75172;BME280;63750;52.418;20.742;2023-04-15T07:08:48;99975.97;;;12.52;69.05
75172;BME280;63750;52.418;20.742;2023-04-15T07:11:17;99980.37;;;12.49;68.94
75172;BME280;63750;52.418;20.742;2023-04-15T07:13:45;99983.37;;;12.48;68.78
75172;BME280;63750;52.418;20.742;2023-04-15T07:16:13;99984.68;;;12.46;68.76
75172;BME280;63750;52.418;20.742;2023-04-15T07:18:42;99986.46;;;12.44;68.83
75172;BME280;63750;52.418;20.742;2023-04-15T07:21:10;99981.66;;;12.44;69.12
75172;BME280;63750;52.418;20.742;2023-04-15T07:23:39;99983.80;;;12.47;69.23
75172;BME280;63750;52.418;20.742;2023-04-15T07:26:07;99987.67;;;12.54;69.36
75172;BME280;63750;52.418;20.742;2023-04-15T07:28:35;99983.98;;;12.61;69.42
75172;BME280;63750;52.418;20.742;2023-04-15T07:31:04;99982.38;;;12.62;69.26
75172;BME280;63750;52.418;20.742;2023-04-15T07:33:33;99983.87;;;12.61;69.13
75172;BME280;63750;52.418;20.742;2023-04-15T07:36:01;99982.84;;;12.58;69.28
75172;BME280;63750;52.418;20.742;2023-04-15T07:38:29;99986.46;;;12.57;69.22
75172;BME280;63750;52.418;20.742;2023-04-15T07:40:58;99983.89;;;12.60;69.28
75172;BME280;63750;52.418;20.742;2023-04-15T07:43:27;99980.71;;;12.63;69.37
75172;BME280;63750;52.418;20.742;2023-04-15T07:45:56;99981.48;;;12.60;69.35
75172;BME280;63750;52.418;20.742;2023-04-15T07:48:24;99986.50;;;12.57;69.26
75172;BME280;63750;52.418;20.742;2023-04-15T07:50:53;99985.63;;;12.57;69.38
75172;BME280;63750;52.418;20.742;2023-04-15T07:53:21;99987.52;;;12.57;69.52
75172;BME280;63750;52.418;20.742;2023-04-15T07:55:50;99983.01;;;12.53;69.35
75172;BME280;63750;52.418;20.742;2023-04-15T07:58:18;99987.30;;;12.54;69.46
75172;BME280;63750;52.418;20.742;2023-04-15T08:00:46;99985.41;;;12.59;69.51
75172;BME280;63750;52.418;20.742;2023-04-15T08:03:15;99989.37;;;12.61;69.30
75172;BME280;63750;52.418;20.742;2023-04-15T08:05:43;99987.35;;;12.61;69.14
75172;BME280;63750;52.418;20.742;2023-04-15T08:08:12;99984.39;;;12.57;69.56
75172;BME280;63750;52.418;20.742;2023-04-15T08:10:40;99982.76;;;12.55;69.42
75172;BME280;63750;52.418;20.742;2023-04-15T08:13:08;99985.21;;;12.50;69.54
75172;BME280;63750;52.418;20.742;2023-04-15T08:15:37;99979.60;;;12.48;69.56
75172;BME280;63750;52.418;20.742;2023-04-15T08:18:05;99980.13;;;12.52;69.53
75172;BME280;63750;52.418;20.742;2023-04-15T08:20:34;99983.20;;;12.53;69.76
75172;BME280;63750;52.418;20.742;2023-04-15T08:23:03;99976.73;;;12.50;69.55
75172;BME280;63750;52.418;20.742;2023-04-15T08:25:31;99980.17;;;12.53;69.63
75172;BME280;63750;52.418;20.742;2023-04-15T08:28:02;99978.44;;;12.52;69.70
75172;BME280;63750;52.418;20.742;2023-04-15T08:30:31;99983.00;;;12.53;69.62
75172;BME280;63750;52.418;20.742;2023-04-15T08:32:59;99981.73;;;12.53;69.77
75172;BME280;63750;52.418;20.742;2023-04-15T08:35:28;99978.42;;;12.51;69.63
75172;BME280;63750;52.418;20.742;2023-04-15T08:37:56;99985.84;;;12.55;69.92
75172;BME280;63750;52.418;20.742;2023-04-15T08:40:28;99986.71;;;12.55;69.94
75172;BME280;63750;52.418;20.742;2023-04-15T08:43:03;99985.80;;;12.57;69.88
75172;BME280;63750;52.418;20.742;2023-04-15T08:45:32;99987.76;;;12.57;69.76
75172;BME280;63750;52.418;20.742;2023-04-15T08:48:03;99984.08;;;12.58;69.77
75172;BME280;63750;52.418;20.742;2023-04-15T08:50:32;99981.58;;;12.63;69.92
75172;BME280;63750;52.418;20.742;2023-04-15T08:53:00;99977.88;;;12.68;70.11
75172;BME280;63750;52.418;20.742;2023-04-15T08:55:31;99980.71;;;12.71;69.89
75172;BME280;63750;52.418;20.742;2023-04-15T08:58:01;99981.64;;;12.73;69.83
75172;BME280;63750;52.418;20.742;2023-04-15T09:00:31;99982.17;;;12.73;69.78
75172;BME280;63750;52.418;20.742;2023-04-15T09:03:00;99982.38;;;12.74;69.83
75172;BME280;63750;52.418;20.742;2023-04-15T09:05:31;99984.11;;;12.75;69.93
75172;BME280;63750;52.418;20.742;2023-04-15T09:08:00;99984.86;;;12.76;70.15
75172;BME280;63750;52.418;20.742;2023-04-15T09:10:28;99986.38;;;12.77;69.97
75172;BME280;63750;52.418;20.742;2023-04-15T09:12:57;99989.38;;;12.74;69.70
75172;BME280;63750;52.418;20.742;2023-04-15T09:15:26;99991.17;;;12.73;69.94
75172;BME280;63750;52.418;20.742;2023-04-15T09:17:55;99991.26;;;12.71;69.82
75172;BME280;63750;52.418;20.742;2023-04-15T09:20:23;99989.30;;;12.71;69.85
75172;BME280;63750;52.418;20.742;2023-04-15T09:22:52;99989.64;;;12.76;69.84
75172;BME280;63750;52.418;20.742;2023-04-15T09:25:28;99989.15;;;12.79;69.81
75172;BME280;63750;52.418;20.742;2023-04-15T09:27:58;99987.69;;;12.81;69.70
75172;BME280;63750;52.418;20.742;2023-04-15T09:30:28;99991.55;;;12.76;69.75
75172;BME280;63750;52.418;20.742;2023-04-15T09:32:57;99990.60;;;12.77;69.89
75172;BME280;63750;52.418;20.742;2023-04-15T09:35:27;99991.48;;;12.80;70.03
75172;BME280;63750;52.418;20.742;2023-04-15T09:38:03;99993.17;;;12.83;70.21
75172;BME280;63750;52.418;20.742;2023-04-15T09:40:36;99990.79;;;12.85;70.29
75172;BME280;63750;52.418;20.742;2023-04-15T09:43:05;99999.71;;;12.90;70.26
75172;BME280;63750;52.418;20.742;2023-04-15T09:45:35;99996.06;;;12.97;70.25
75172;BME280;63750;52.418;20.742;2023-04-15T09:48:17;100001.63;;;13.05;70.35
75172;BME280;63750;52.418;20.742;2023-04-15T09:50:47;100002.99;;;13.09;70.45
75172;BME280;63750;52.418;20.742;2023-04-15T09:53:19;100002.27;;;13.10;70.27
75172;BME280;63750;52.418;20.742;2023-04-15T09:55:50;100004.61;;;13.13;70.41
75172;BME280;63750;52.418;20.742;2023-04-15T09:58:20;100006.31;;;13.13;70.23
75172;BME280;63750;52.418;20.742;2023-04-15T10:00:50;100010.27;;;13.13;70.19
75172;BME280;63750;52.418;20.742;2023-04-15T10:03:21;100011.60;;;13.14;70.16
75172;BME280;63750;52.418;20.742;2023-04-15T10:05:51;100007.95;;;13.19;70.07
75172;BME280;63750;52.418;20.742;2023-04-15T10:08:21;100011.20;;;13.21;70.15
75172;BME280;63750;52.418;20.742;2023-04-15T10:10:51;100011.35;;;13.20;70.23
75172;BME280;63750;52.418;20.742;2023-04-15T10:13:22;100010.07;;;13.22;70.16
75172;BME280;63750;52.418;20.742;2023-04-15T10:15:59;100009.39;;;13.25;69.99
75172;BME280;63750;52.418;20.742;2023-04-15T10:18:28;100013.84;;;13.31;70.29
75172;BME280;63750;52.418;20.742;2023-04-15T10:21:00;100006.27;;;13.34;70.25
75172;BME280;63750;52.418;20.742;2023-04-15T10:23:29;100009.91;;;13.36;70.08
75172;BME280;63750;52.418;20.742;2023-04-15T10:25:58;100007.08;;;13.41;70.34
75172;BME280;63750;52.418;20.742;2023-04-15T10:28:27;100006.04;;;13.50;70.26
75172;BME280;63750;52.418;20.742;2023-04-15T10:30:55;100005.94;;;13.55;70.11
75172;BME280;63750;52.418;20.742;2023-04-15T10:33:25;100007.27;;;13.58;70.19
75172;BME280;63750;52.418;20.742;2023-04-15T10:35:56;100007.84;;;13.56;69.88
75172;BME280;63750;52.418;20.742;2023-04-15T10:38:35;100007.23;;;13.61;69.83
75172;BME280;63750;52.418;20.742;2023-04-15T10:41:19;100012.41;;;13.56;69.64
75172;BME280;63750;52.418;20.742;2023-04-15T10:43:49;100010.31;;;13.57;69.76
75172;BME280;63750;52.418;20.742;2023-04-15T10:46:20;100012.86;;;13.63;69.88
75172;BME280;63750;52.418;20.742;2023-04-15T10:48:50;100011.43;;;13.65;69.79
75172;BME280;63750;52.418;20.742;2023-04-15T10:51:27;100009.71;;;13.66;69.91
75172;BME280;63750;52.418;20.742;2023-04-15T10:53:58;100008.22;;;13.65;69.65
75172;BME280;63750;52.418;20.742;2023-04-15T10:56:28;100009.55;;;13.69;69.71
75172;BME280;63750;52.418;20.742;2023-04-15T10:58:59;100012.08;;;13.76;69.89
75172;BME280;63750;52.418;20.742;2023-04-15T11:01:50;100014.89;;;13.78;69.58
75172;BME280;63750;52.418;20.742;2023-04-15T11:07:16;100010.90;;;13.88;69.43
75172;BME280;63750;52.418;20.742;2023-04-15T11:10:01;100015.43;;;13.83;69.30
75172;BME280;63750;52.418;20.742;2023-04-15T11:12:36;100014.60;;;13.80;69.18
75172;BME280;63750;52.418;20.742;2023-04-15T11:15:28;100010.93;;;13.73;68.95
75172;BME280;63750;52.418;20.742;2023-04-15T11:17:57;100013.45;;;13.68;69.06
75172;BME280;63750;52.418;20.742;2023-04-15T11:20:26;100011.09;;;13.68;68.99
75172;BME280;63750;52.418;20.742;2023-04-15T11:22:54;100010.53;;;13.62;68.98
75172;BME280;63750;52.418;20.742;2023-04-15T11:25:27;100016.23;;;13.64;69.29
75172;BME280;63750;52.418;20.742;2023-04-15T11:27:57;100012.78;;;13.69;69.24
75172;BME280;63750;52.418;20.742;2023-04-15T11:30:27;100014.46;;;13.73;69.45
75172;BME280;63750;52.418;20.742;2023-04-15T11:32:58;100016.58;;;13.75;69.56
75172;BME280;63750;52.418;20.742;2023-04-15T11:35:27;100018.42;;;13.78;69.41
75172;BME280;63750;52.418;20.742;2023-04-15T11:37:56;100020.38;;;13.85;69.62
75172;BME280;63750;52.418;20.742;2023-04-15T11:40:25;100022.13;;;13.88;69.42
75172;BME280;63750;52.418;20.742;2023-04-15T11:43:06;100018.95;;;13.91;69.42
75172;BME280;63750;52.418;20.742;2023-04-15T11:45:35;100019.64;;;13.98;69.79
75172;BME280;63750;52.418;20.742;2023-04-15T11:48:08;100016.95;;;14.04;69.36
75172;BME280;63750;52.418;20.742;2023-04-15T11:50:38;100017.42;;;14.05;69.11
75172;BME280;63750;52.418;20.742;2023-04-15T11:53:08;100013.52;;;14.03;69.07
75172;BME280;63750;52.418;20.742;2023-04-15T11:55:43;100015.02;;;14.04;69.30
75172;BME280;63750;52.418;20.742;2023-04-15T11:58:13;100013.56;;;14.09;69.54
75172;BME280;63750;52.418;20.742;2023-04-15T12:00:48;100016.92;;;14.12;69.21
75172;BME280;63750;52.418;20.742;2023-04-15T12:03:23;100017.98;;;14.08;69.11
75172;BME280;63750;52.418;20.742;2023-04-15T12:06:06;100015.61;;;14.08;69.12
75172;BME280;63750;52.418;20.742;2023-04-15T12:08:58;100020.29;;;14.05;69.01
75172;BME280;63750;52.418;20.742;2023-04-15T12:11:41;100022.38;;;14.00;69.09
75172;BME280;63750;52.418;20.742;2023-04-15T12:14:25;100023.92;;;13.94;69.11
75172;BME280;63750;52.418;20.742;2023-04-15T12:16:55;100025.15;;;13.98;69.09
75172;BME280;63750;52.418;20.742;2023-04-15T12:19:25;100025.16;;;14.04;69.49
75172;BME280;63750;52.418;20.742;2023-04-15T12:21:58;100025.86;;;14.09;69.35
75172;BME280;63750;52.418;20.742;2023-04-15T12:24:29;100025.88;;;14.14;69.51
75172;BME280;63750;52.418;20.742;2023-04-15T12:27:02;100028.17;;;14.12;69.28
75172;BME280;63750;52.418;20.742;2023-04-15T12:29:31;100025.95;;;14.11;69.44
75172;BME280;63750;52.418;20.742;2023-04-15T12:32:05;100029.23;;;14.09;69.55
75172;BME280;63750;52.418;20.742;2023-04-15T12:34:35;100031.21;;;14.03;69.65
75172;BME280;63750;52.418;20.742;2023-04-15T12:37:05;100034.89;;;13.92;69.52
75172;BME280;63750;52.418;20.742;2023-04-15T12:39:37;100037.31;;;13.88;69.14
75172;BME280;63750;52.418;20.742;2023-04-15T12:42:06;100033.14;;;13.80;69.37
75172;BME280;63750;52.418;20.742;2023-04-15T12:44:35;100037.92;;;13.97;70.01
75172;BME280;63750;52.418;20.742;2023-04-15T12:47:04;100044.80;;;14.17;70.63
75172;BME280;63750;52.418;20.742;2023-04-15T12:49:33;100047.15;;;14.31;71.11
75172;BME280;63750;52.418;20.742;2023-04-15T12:52:02;100047.92;;;14.40;71.09
75172;BME280;63750;52.418;20.742;2023-04-15T12:54:31;100053.18;;;14.46;70.93
75172;BME280;63750;52.418;20.742;2023-04-15T12:57:01;100055.02;;;14.51;70.62
75172;BME280;63750;52.418;20.742;2023-04-15T12:59:29;100059.14;;;14.58;70.55
75172;BME280;63750;52.418;20.742;2023-04-15T13:01:58;100065.31;;;14.63;70.33